Time;durP1;ratioP1;P1;durP2;ratioP2;P2;SDS_P1;SDS_P2;PMS_P1;PMS_P2;Temp;Humidity;BMP_temperature;BMP_pressure;BME280_temperature;BME280_humidity;BME280_pressure;Samples;Min_cycle;Max_cycle;Signal;HPM_P1;HPM_P2
2022/01/25 00:10:26;;;;;;;31.57;16.40;;;-0.90;99.90;;;;;;5016032;28;20277;-89
2022/01/25 00:26:46;;;;;;;24.03;14.20;;;-1.20;99.90;;;;;;5031887;28;20202;-89
2022/01/25 00:29:25;;;;;;;25.10;14.17;;;-1.20;99.90;;;;;;5015108;28;20191;-89
2022/01/25 00:31:51;;;;;;;24.87;14.47;;;-1.20;99.90;;;;;;5015060;28;20221;-88
2022/01/25 00:34:17;;;;;;;24.47;14.23;;;-1.20;99.90;;;;;;5019305;28;20182;-88
2022/01/25 00:36:43;;;;;;;23.70;13.53;;;-1.20;99.90;;;;;;5019380;28;20260;-88
2022/01/25 00:39:09;;;;;;;26.57;14.87;;;-1.20;99.90;;;;;;5019212;28;20190;-89
2022/01/25 00:41:35;;;;;;;24.97;15.43;;;-1.20;99.90;;;;;;5019281;28;20203;-88
2022/01/25 00:44:02;;;;;;;25.17;14.17;;;-1.20;99.90;;;;;;5019192;28;20183;-89
2022/01/25 00:46:29;;;;;;;20.13;12.30;;;-1.20;99.90;;;;;;5018945;28;20178;-89
2022/01/25 00:49:07;;;;;;;20.90;12.53;;;-1.20;99.90;;;;;;5018822;28;20265;-89
2022/01/25 00:56:36;;;;;;;19.23;11.60;;;-1.20;99.90;;;;;;5035199;28;20290;-89
2022/01/25 00:59:09;;;;;;;19.47;11.03;;;-1.20;99.90;;;;;;5018386;28;20179;-89
2022/01/25 01:01:36;;;;;;;17.30;11.67;;;-1.20;99.90;;;;;;5018860;28;20203;-89
2022/01/25 01:04:03;;;;;;;19.10;12.43;;;-1.20;99.90;;;;;;5032604;28;20182;-89
2022/01/25 01:06:30;;;;;;;17.27;11.40;;;-1.20;99.90;;;;;;5038496;28;20174;-89
2022/01/25 01:08:56;;;;;;;19.83;12.63;;;-1.30;99.90;;;;;;5038065;28;20187;-88
2022/01/25 01:11:30;;;;;;;19.20;12.23;;;-1.30;99.90;;;;;;5038431;28;20186;-89
2022/01/25 01:48:30;;;;;;;22.10;13.13;;;-1.40;99.90;;;;;;5054247;28;20181;-89
2022/01/25 01:51:05;;;;;;;22.03;13.47;;;-1.40;99.90;;;;;;5037575;28;20226;-89
2022/01/25 01:53:32;;;;;;;24.33;14.37;;;-1.40;99.90;;;;;;5037789;28;20180;-89
2022/01/25 01:55:59;;;;;;;20.33;12.27;;;-1.40;99.90;;;;;;5037840;28;20201;-89
2022/01/25 01:58:24;;;;;;;21.77;13.93;;;-1.40;99.90;;;;;;5037374;28;20174;-89
2022/01/25 02:00:51;;;;;;;19.43;13.00;;;-1.40;99.90;;;;;;5037437;28;20174;-89
2022/01/25 02:03:18;;;;;;;18.60;12.50;;;-1.50;99.90;;;;;;5037512;28;20199;-89
2022/01/25 02:05:44;;;;;;;21.07;13.70;;;-1.50;99.90;;;;;;5037742;28;20201;-89
2022/01/25 02:08:12;;;;;;;23.70;13.87;;;-1.50;99.90;;;;;;5037165;28;20213;-89
2022/01/25 02:10:38;;;;;;;23.17;12.97;;;-1.50;99.90;;;;;;5044147;28;20185;-89
2022/01/25 02:13:09;;;;;;;22.87;12.70;;;-1.50;99.90;;;;;;5060964;28;20190;-89
2022/01/25 02:15:37;;;;;;;21.43;13.33;;;-1.50;99.90;;;;;;5038915;28;20304;-89
2022/01/25 02:23:34;;;;;;;18.53;11.50;;;-1.60;99.90;;;;;;5054036;28;20162;-89
2022/01/25 02:26:03;;;;;;;17.57;11.10;;;-1.60;99.90;;;;;;5037178;28;20189;-89
2022/01/25 02:28:32;;;;;;;16.80;11.07;;;-1.60;99.90;;;;;;5036882;28;20182;-89
2022/01/25 02:30:59;;;;;;;17.93;10.93;;;-1.60;99.90;;;;;;5036522;28;20202;-89
2022/01/25 02:33:27;;;;;;;17.40;11.47;;;-1.60;99.90;;;;;;5036747;28;20669;-89
2022/01/25 02:35:54;;;;;;;16.70;11.30;;;-1.60;99.90;;;;;;5036875;28;20205;-88
2022/01/25 02:38:26;;;;;;;15.73;11.03;;;-1.70;99.90;;;;;;5036367;28;20185;-89
2022/01/25 02:40:53;;;;;;;18.23;11.40;;;-1.70;99.90;;;;;;5036444;28;20162;-89
2022/01/25 02:43:20;;;;;;;15.97;10.90;;;-1.80;99.90;;;;;;5036261;28;20190;-89
2022/01/25 02:48:29;;;;;;;19.77;11.30;;;-1.80;99.90;;;;;;5036752;28;20178;-89
2022/01/25 02:48:58;;;;;;;20.67;11.87;;;-1.80;99.90;;;;;;5030468;28;20196;-89
2022/01/25 02:51:31;;;;;;;21.93;11.83;;;-1.90;99.90;;;;;;5036183;28;20218;-89
2022/01/25 02:53:57;;;;;;;20.67;12.43;;;-1.90;99.90;;;;;;5036613;28;20181;-89
2022/01/25 02:56:25;;;;;;;23.70;12.93;;;-1.90;99.90;;;;;;5035714;28;20241;-89
2022/01/25 02:58:52;;;;;;;19.47;11.60;;;-2.00;99.90;;;;;;5036133;28;20192;-89
2022/01/25 03:01:18;;;;;;;20.67;12.10;;;-1.90;99.90;;;;;;5036213;28;20182;-89
2022/01/25 03:03:44;;;;;;;18.97;12.63;;;-2.00;99.90;;;;;;5036044;28;20178;-88
2022/01/25 03:06:15;;;;;;;20.83;12.00;;;-1.90;99.90;;;;;;5036162;28;20212;-88
2022/01/25 03:08:41;;;;;;;20.07;12.17;;;-2.00;99.90;;;;;;5036528;28;20261;-88
2022/01/25 03:11:07;;;;;;;19.07;11.70;;;-1.90;99.90;;;;;;5036193;28;20189;-89
2022/01/25 03:13:47;;;;;;;17.70;11.20;;;-1.90;99.90;;;;;;5035935;28;20182;-88
2022/01/25 03:16:20;;;;;;;17.67;12.10;;;-1.90;99.90;;;;;;5035863;28;20194;-89
2022/01/25 03:18:48;;;;;;;19.57;11.43;;;-1.90;99.90;;;;;;5035576;28;20181;-88
2022/01/25 03:23:44;;;;;;;19.70;11.57;;;-1.90;99.90;;;;;;5052698;28;20179;-89
2022/01/25 03:26:09;;;;;;;15.67;10.50;;;-2.00;99.90;;;;;;5035957;28;20182;-89
2022/01/25 03:28:36;;;;;;;19.93;12.13;;;-2.00;99.90;;;;;;5035632;28;20261;-89
2022/01/25 03:31:02;;;;;;;18.73;11.90;;;-2.00;99.90;;;;;;5035712;28;20202;-89
2022/01/25 03:33:28;;;;;;;17.30;11.03;;;-2.10;99.90;;;;;;5035933;28;20206;-89
2022/01/25 03:35:54;;;;;;;19.83;11.63;;;-2.10;99.90;;;;;;5035498;28;20698;-89
2022/01/25 03:38:20;;;;;;;22.23;12.10;;;-2.20;99.90;;;;;;5035584;28;20178;-89
2022/01/25 03:44:52;;;;;;;18.53;11.50;;;-2.20;99.90;;;;;;5053358;28;20224;-88
2022/01/25 03:47:22;;;;;;;19.10;11.70;;;-2.20;99.90;;;;;;5035800;28;20177;-90
2022/01/25 03:49:52;;;;;;;21.10;11.97;;;-2.20;99.90;;;;;;5035568;28;20218;-89
2022/01/25 03:52:33;;;;;;;20.03;12.20;;;-2.30;99.90;;;;;;5035540;28;20233;-89
2022/01/25 03:54:59;;;;;;;20.53;12.40;;;-2.30;99.90;;;;;;5035581;28;20269;-89
2022/01/25 03:57:26;;;;;;;19.90;12.80;;;-2.30;99.90;;;;;;5035603;28;20217;-89
2022/01/25 03:59:53;;;;;;;19.17;12.83;;;-2.30;99.90;;;;;;5035532;28;20185;-89
2022/01/25 04:02:19;;;;;;;22.23;13.37;;;-2.30;99.90;;;;;;5035523;28;20728;-88
2022/01/25 04:04:47;;;;;;;21.87;13.43;;;-2.30;99.90;;;;;;5035281;28;20182;-89
2022/01/25 04:07:15;;;;;;;20.40;12.57;;;-2.40;99.90;;;;;;5035781;28;20189;-88
2022/01/25 04:09:41;;;;;;;21.47;13.10;;;-2.40;99.90;;;;;;5039523;28;20256;-89
2022/01/25 04:12:07;;;;;;;25.27;14.60;;;-2.40;99.90;;;;;;5039843;28;20598;-88
2022/01/25 04:14:33;;;;;;;23.73;14.37;;;-2.40;99.90;;;;;;5039327;28;20264;-89
2022/01/25 04:17:06;;;;;;;23.33;13.87;;;-2.40;99.90;;;;;;5039118;28;20292;-89
2022/01/25 04:19:44;;;;;;;28.73;14.93;;;-2.40;99.90;;;;;;5039395;28;20250;-89
2022/01/25 04:25:03;;;;;;;23.53;13.87;;;-2.30;99.90;;;;;;5055995;28;20174;-89
2022/01/25 04:27:30;;;;;;;20.90;12.67;;;-2.30;99.90;;;;;;5039341;28;20177;-89
2022/01/25 04:29:57;;;;;;;24.90;14.60;;;-2.30;99.90;;;;;;5038859;28;20193;-89
2022/01/25 04:32:32;;;;;;;22.70;13.67;;;-2.20;99.90;;;;;;5039035;28;20202;-89
2022/01/25 04:36:24;;;;;;;19.23;12.63;;;-2.20;99.90;;;;;;5038889;28;20231;-89
2022/01/25 04:59:05;;;;;;;22.00;12.80;;;-2.50;99.90;;;;;;5054952;28;20175;-88
2022/01/25 05:05:01;;;;;;;20.03;11.87;;;-2.60;99.90;;;;;;5035316;28;20171;-89
2022/01/25 05:10:07;;;;;;;20.97;12.37;;;-2.60;99.90;;;;;;5035030;28;20182;-88
2022/01/25 05:15:21;;;;;;;22.13;12.27;;;-2.60;99.90;;;;;;5034943;28;20174;-88
2022/01/25 05:18:18;;;;;;;20.73;12.20;;;-2.50;99.90;;;;;;5034367;28;20217;-88
2022/01/25 05:23:29;;;;;;;20.23;12.27;;;-2.40;99.90;;;;;;5035073;28;20277;-88
2022/01/25 05:25:55;;;;;;;21.90;13.00;;;-2.40;99.90;;;;;;5034576;28;20179;-88
2022/01/25 05:28:21;;;;;;;21.13;12.77;;;-2.50;99.90;;;;;;5034444;28;20178;-88
2022/01/25 05:30:47;;;;;;;21.47;13.57;;;-2.50;99.90;;;;;;5034593;28;20268;-89
2022/01/25 05:33:13;;;;;;;22.00;13.77;;;-2.50;99.90;;;;;;5034445;28;20210;-90
2022/01/25 05:35:39;;;;;;;22.13;13.47;;;-2.60;99.90;;;;;;5034889;28;20260;-88
2022/01/25 05:38:05;;;;;;;20.10;12.77;;;-2.60;99.90;;;;;;5034453;28;20178;-88
2022/01/25 05:40:55;;;;;;;26.23;14.03;;;-2.70;99.90;;;;;;5034682;28;20183;-88
2022/01/25 05:46:20;;;;;;;21.27;13.10;;;-2.70;99.90;;;;;;5034456;28;20179;-88
2022/01/25 05:48:47;;;;;;;25.83;15.10;;;-2.70;99.90;;;;;;5034577;28;20171;-88
2022/01/25 05:51:14;;;;;;;23.13;15.73;;;-2.70;99.90;;;;;;5034495;28;20206;-88
2022/01/25 05:53:42;;;;;;;28.23;15.30;;;-2.70;99.90;;;;;;5034217;28;20206;-88
2022/01/25 05:56:09;;;;;;;27.60;15.77;;;-2.70;99.90;;;;;;5034498;28;20237;-88
2022/01/25 05:58:35;;;;;;;24.57;15.47;;;-2.70;99.90;;;;;;5034035;28;20212;-88
2022/01/25 06:01:01;;;;;;;28.77;16.57;;;-2.70;99.90;;;;;;5034219;28;20175;-88
2022/01/25 06:03:27;;;;;;;27.03;15.07;;;-2.70;99.90;;;;;;5031029;28;20203;-88
2022/01/25 06:05:53;;;;;;;28.07;15.67;;;-2.70;99.90;;;;;;5037348;28;20182;-88
2022/01/25 06:08:33;;;;;;;27.77;15.87;;;-2.70;99.90;;;;;;5053689;28;20170;-88
2022/01/25 06:10:59;;;;;;;33.23;17.83;;;-2.70;99.90;;;;;;5037207;28;20190;-88
2022/01/25 06:13:25;;;;;;;27.80;15.83;;;-2.70;99.90;;;;;;5037311;28;20198;-88
2022/01/25 06:15:51;;;;;;;27.80;15.10;;;-2.70;99.90;;;;;;5036674;28;20206;-89
2022/01/25 06:18:16;;;;;;;26.27;14.83;;;-2.70;99.90;;;;;;5037158;28;20209;-88
2022/01/25 06:20:42;;;;;;;23.77;14.70;;;-2.80;99.90;;;;;;5037091;28;20264;-88
2022/01/25 06:23:08;;;;;;;26.67;14.33;;;-2.80;99.90;;;;;;5053795;28;20197;-88
2022/01/25 06:25:34;;;;;;;26.17;15.57;;;-2.90;99.90;;;;;;5053415;28;20269;-88
2022/01/25 06:28:00;;;;;;;26.53;14.77;;;-2.80;99.90;;;;;;5036413;28;20181;-89
2022/01/25 06:30:26;;;;;;;22.27;13.67;;;-2.90;99.90;;;;;;5036212;28;20190;-88
2022/01/25 06:32:52;;;;;;;23.07;13.93;;;-2.80;99.90;;;;;;5036729;28;20205;-88
2022/01/25 06:35:18;;;;;;;25.23;14.63;;;-2.80;99.90;;;;;;5036645;28;20184;-88
2022/01/25 06:37:45;;;;;;;22.87;12.60;;;-2.90;99.90;;;;;;5036426;28;20217;-88
2022/01/25 06:40:12;;;;;;;26.00;14.30;;;-2.90;99.90;;;;;;5036672;28;20185;-88
2022/01/25 06:42:38;;;;;;;25.23;13.70;;;-2.90;99.90;;;;;;5036654;28;20201;-89
2022/01/25 06:45:11;;;;;;;21.80;12.83;;;-2.90;99.90;;;;;;5036407;28;20634;-88
2022/01/25 06:47:38;;;;;;;24.47;15.20;;;-2.80;99.90;;;;;;5036875;28;20217;-89
2022/01/25 06:50:04;;;;;;;22.20;13.87;;;-2.70;99.90;;;;;;5036628;28;20181;-89
2022/01/25 06:52:30;;;;;;;25.67;14.27;;;-2.70;99.90;;;;;;5036248;28;20247;-89
2022/01/25 06:54:56;;;;;;;23.23;14.00;;;-2.80;99.90;;;;;;5036481;28;20182;-89
2022/01/25 06:57:22;;;;;;;26.63;14.87;;;-2.80;99.90;;;;;;5036469;28;20209;-89
2022/01/25 06:59:48;;;;;;;24.23;14.33;;;-2.80;99.90;;;;;;5035992;28;20182;-89
2022/01/25 07:02:15;;;;;;;25.87;15.40;;;-2.80;99.90;;;;;;5036019;28;20257;-89
2022/01/25 07:04:41;;;;;;;26.77;15.73;;;-2.80;99.90;;;;;;5035893;28;20537;-89
2022/01/25 07:07:07;;;;;;;24.83;15.70;;;-2.80;99.90;;;;;;5036310;28;20181;-89
2022/01/25 07:09:34;;;;;;;25.67;13.87;;;-2.80;99.90;;;;;;5036320;28;20181;-89
2022/01/25 07:12:00;;;;;;;23.53;14.50;;;-2.70;99.90;;;;;;5036255;28;20339;-88
2022/01/25 07:14:26;;;;;;;25.60;14.20;;;-2.70;99.90;;;;;;5036445;28;20269;-88
2022/01/25 07:16:54;;;;;;;23.87;13.30;;;-2.80;99.90;;;;;;5037151;28;20246;-88
2022/01/25 07:19:20;;;;;;;24.33;13.83;;;-2.70;99.90;;;;;;5036065;28;20174;-88
2022/01/25 07:21:46;;;;;;;22.40;13.63;;;-2.80;99.90;;;;;;5035660;28;20193;-88
2022/01/25 07:24:12;;;;;;;25.87;15.03;;;-2.80;99.90;;;;;;5036125;28;20184;-88
2022/01/25 07:26:47;;;;;;;25.73;15.37;;;-2.80;99.90;;;;;;5035324;28;20186;-88
2022/01/25 07:29:13;;;;;;;27.73;16.07;;;-2.80;99.90;;;;;;5035820;28;20189;-88
2022/01/25 07:31:39;;;;;;;27.60;16.30;;;-2.70;99.90;;;;;;5035574;28;20205;-88
2022/01/25 07:34:05;;;;;;;27.57;16.53;;;-2.70;99.90;;;;;;5021462;28;20194;-88
2022/01/25 07:36:31;;;;;;;28.53;15.90;;;-2.70;99.90;;;;;;5014544;28;20206;-88
2022/01/25 07:38:56;;;;;;;24.50;14.53;;;-2.70;99.90;;;;;;5015737;28;20178;-88
2022/01/25 07:45:11;;;;;;;31.03;17.10;;;-2.60;99.90;;;;;;5033610;28;20190;-88
2022/01/25 07:47:38;;;;;;;36.07;18.67;;;-2.60;99.90;;;;;;5015491;28;20215;-88
2022/01/25 07:50:05;;;;;;;32.80;19.20;;;-2.60;99.90;;;;;;5015762;28;20186;-88
2022/01/25 07:52:31;;;;;;;37.00;19.87;;;-2.60;99.90;;;;;;5016000;28;20281;-88
2022/01/25 07:54:57;;;;;;;31.70;19.27;;;-2.60;99.90;;;;;;5015851;28;20281;-88
2022/01/25 07:57:24;;;;;;;30.03;18.53;;;-2.50;99.90;;;;;;5015859;28;20217;-88
2022/01/25 07:59:51;;;;;;;32.00;19.00;;;-2.50;99.90;;;;;;5015901;28;20175;-88
2022/01/25 08:02:18;;;;;;;32.10;18.93;;;-2.50;99.90;;;;;;5015853;28;20201;-88
2022/01/25 08:04:45;;;;;;;31.73;18.37;;;-2.40;99.90;;;;;;5016019;28;20178;-88
2022/01/25 08:07:11;;;;;;;32.40;19.13;;;-2.40;99.90;;;;;;5015540;28;20181;-88
2022/01/25 08:09:37;;;;;;;33.33;18.70;;;-2.30;99.90;;;;;;5015302;28;20189;-88
2022/01/25 08:12:03;;;;;;;29.87;18.80;;;-2.20;99.90;;;;;;5015689;28;20206;-88
2022/01/25 08:14:29;;;;;;;34.33;19.60;;;-2.10;99.90;;;;;;5015505;28;20198;-88
2022/01/25 08:17:19;;;;;;;36.63;19.77;;;-2.10;99.90;;;;;;5015024;28;20206;-88
2022/01/25 08:19:45;;;;;;;41.47;19.83;;;-2.00;99.90;;;;;;5015549;28;20196;-88
2022/01/25 08:22:11;;;;;;;33.10;17.07;;;-1.90;99.90;;;;;;5015435;28;20594;-88
2022/01/25 08:24:37;;;;;;;30.63;18.07;;;-1.80;99.90;;;;;;5015391;28;20175;-88
2022/01/25 08:27:14;;;;;;;27.53;16.67;;;-1.70;99.90;;;;;;5014989;28;20190;-88
2022/01/25 08:29:40;;;;;;;24.43;14.93;;;-1.60;99.90;;;;;;5015372;28;20201;-88
2022/01/25 08:32:07;;;;;;;27.70;15.20;;;-1.60;99.90;;;;;;5031789;28;20206;-88
2022/01/25 08:34:33;;;;;;;27.00;14.37;;;-1.50;99.90;;;;;;5015188;28;20247;-88
2022/01/25 08:36:59;;;;;;;28.23;14.63;;;-1.40;99.90;;;;;;5015093;28;20211;-88
2022/01/25 08:39:26;;;;;;;24.97;14.47;;;-1.20;99.90;;;;;;5015380;28;20183;-88
2022/01/25 08:41:53;;;;;;;24.20;13.93;;;-1.10;99.90;;;;;;5015233;28;20216;-88
2022/01/25 08:44:19;;;;;;;23.10;14.53;;;-1.00;99.90;;;;;;5015206;28;20182;-88
2022/01/25 08:46:45;;;;;;;23.43;13.97;;;-0.90;99.90;;;;;;5015501;28;20185;-88
2022/01/25 08:49:11;;;;;;;28.47;16.00;;;-0.80;99.90;;;;;;5031802;28;20183;-88
2022/01/25 08:51:37;;;;;;;26.53;16.23;;;-0.70;99.90;;;;;;5015025;28;20205;-88
2022/01/25 08:54:03;;;;;;;26.07;15.73;;;-0.70;99.90;;;;;;5017106;28;20186;-88
2022/01/25 08:56:29;;;;;;;27.17;16.20;;;-0.60;99.90;;;;;;5018988;28;20206;-88
2022/01/25 08:58:56;;;;;;;26.27;15.90;;;-0.50;99.90;;;;;;5018633;28;20187;-88
2022/01/25 09:01:22;;;;;;;28.90;17.03;;;-0.50;99.90;;;;;;5019010;28;20167;-88
2022/01/25 09:03:49;;;;;;;29.07;17.03;;;-0.40;99.90;;;;;;5021851;28;20178;-88
2022/01/25 09:06:15;;;;;;;28.43;17.87;;;-0.40;99.90;;;;;;5019033;28;20180;-88
2022/01/25 09:08:41;;;;;;;32.23;19.53;;;-0.40;99.90;;;;;;5019249;28;20183;-88
2022/01/25 09:11:07;;;;;;;31.70;18.43;;;-0.30;99.90;;;;;;5018230;28;20183;-88
2022/01/25 09:13:34;;;;;;;32.07;17.80;;;-0.20;99.90;;;;;;5018882;28;20210;-88
2022/01/25 09:16:01;;;;;;;29.50;17.80;;;-0.10;99.90;;;;;;5019278;28;20230;-88
2022/01/25 09:18:27;;;;;;;28.43;16.57;;;0.00;99.90;;;;;;5019061;28;20183;-88
2022/01/25 09:20:55;;;;;;;26.70;15.87;;;0.10;99.90;;;;;;5019238;28;20599;-88
2022/01/25 09:23:23;;;;;;;34.80;17.63;;;0.20;99.90;;;;;;5018943;28;20203;-88
2022/01/25 09:25:51;;;;;;;30.03;17.23;;;0.30;99.90;;;;;;5019138;28;20180;-88
2022/01/25 09:28:18;;;;;;;29.07;16.23;;;0.40;99.90;;;;;;5034273;28;20192;-88
2022/01/25 09:30:44;;;;;;;28.47;16.20;;;0.50;99.90;;;;;;5018507;28;20232;-88
2022/01/25 09:33:11;;;;;;;23.57;13.97;;;0.60;99.90;;;;;;5022835;28;20211;-88
2022/01/25 09:35:37;;;;;;;24.27;15.13;;;0.70;99.90;;;;;;5018324;28;20183;-88
2022/01/25 09:38:03;;;;;;;23.90;14.10;;;0.80;99.90;;;;;;5034440;28;20186;-88
2022/01/25 09:40:30;;;;;;;21.93;13.17;;;1.00;99.90;;;;;;5018378;28;20179;-88
2022/01/25 09:42:57;;;;;;;23.80;14.67;;;1.00;99.90;;;;;;5018391;28;20195;-88
2022/01/25 09:45:24;;;;;;;26.20;14.77;;;1.20;99.90;;;;;;5034731;28;20211;-88
2022/01/25 09:47:53;;;;;;;24.57;14.60;;;1.30;99.90;;;;;;5018021;28;20187;-88
2022/01/25 09:50:20;;;;;;;26.27;14.80;;;1.40;99.90;;;;;;5018197;28;20195;-88
2022/01/25 09:52:46;;;;;;;26.67;15.40;;;1.50;99.90;;;;;;5017880;28;20204;-88
2022/01/25 09:55:18;;;;;;;24.33;14.30;;;1.60;99.90;;;;;;5017945;28;20182;-88
2022/01/25 09:57:45;;;;;;;24.83;15.07;;;1.70;99.90;;;;;;5034302;28;20206;-89
2022/01/25 10:00:14;;;;;;;24.27;15.27;;;1.70;99.90;;;;;;5017910;28;20646;-88
2022/01/25 10:02:48;;;;;;;26.83;15.53;;;1.90;99.90;;;;;;5017802;28;20209;-88
2022/01/25 10:05:17;;;;;;;24.60;15.27;;;2.00;99.90;;;;;;5017095;28;20245;-88
2022/01/25 10:07:53;;;;;;;24.77;13.97;;;2.10;99.90;;;;;;5034106;28;20212;-88
2022/01/25 10:10:19;;;;;;;24.73;14.57;;;2.20;99.90;;;;;;5018076;28;20627;-89
2022/01/25 10:12:45;;;;;;;24.87;15.03;;;2.30;99.90;;;;;;5018437;28;20198;-88
2022/01/25 10:15:12;;;;;;;24.47;14.53;;;2.40;99.90;;;;;;5031269;28;20192;-89
2022/01/25 10:17:41;;;;;;;22.80;14.00;;;2.50;99.90;;;;;;5039827;28;20225;-89
2022/01/25 10:20:24;;;;;;;21.00;13.70;;;2.50;99.90;;;;;;5020096;28;20234;-88
2022/01/25 10:22:50;;;;;;;23.67;15.10;;;2.60;99.90;;;;;;5017741;28;20278;-88
2022/01/25 10:25:35;;;;;;;21.47;13.03;;;2.60;99.90;;;;;;5017629;28;20232;-88
2022/01/25 10:28:03;;;;;;;21.80;13.33;;;2.80;99.90;;;;;;5033525;28;20178;-88
2022/01/25 10:30:45;;;;;;;19.50;12.73;;;2.80;99.90;;;;;;5017222;28;20196;-88
2022/01/25 10:33:51;;;;;;;20.30;12.63;;;2.80;99.90;;;;;;5033177;28;20209;-88
2022/01/25 10:36:20;;;;;;;21.83;12.97;;;2.80;99.90;;;;;;5033743;28;20293;-88
2022/01/25 10:38:49;;;;;;;22.33;13.37;;;3.00;99.90;;;;;;5016802;28;20179;-88
2022/01/25 10:41:34;;;;;;;23.13;13.93;;;3.10;99.90;;;;;;5017252;28;20178;-89
2022/01/25 10:44:00;;;;;;;20.63;13.37;;;3.10;99.90;;;;;;5017290;28;20225;-88
2022/01/25 10:46:31;;;;;;;22.43;13.67;;;3.10;99.90;;;;;;5017105;28;20187;-89
2022/01/25 10:49:04;;;;;;;22.67;13.67;;;3.20;99.90;;;;;;5016884;28;20190;-88
2022/01/25 10:51:43;;;;;;;19.47;12.53;;;3.30;99.90;;;;;;5033114;28;20206;-88
2022/01/25 10:54:22;;;;;;;21.90;12.70;;;3.30;99.90;;;;;;5016778;28;20173;-88
2022/01/25 10:57:31;;;;;;;19.07;12.50;;;3.40;99.90;;;;;;5025901;28;20604;-89
2022/01/25 11:00:00;;;;;;;19.60;12.57;;;3.50;99.90;;;;;;5033075;28;20186;-89
2022/01/25 11:02:27;;;;;;;19.93;11.80;;;3.60;99.90;;;;;;5016377;28;20202;-89
2022/01/25 11:05:05;;;;;;;23.10;13.60;;;3.70;99.90;;;;;;5016873;28;20232;-89
2022/01/25 11:07:40;;;;;;;20.83;13.67;;;3.80;99.90;;;;;;5028583;28;20622;-89
2022/01/25 11:10:09;;;;;;;23.53;15.20;;;3.90;99.90;;;;;;5041428;28;20178;-89
2022/01/25 11:16:22;;;;;;;23.23;14.90;;;4.00;99.90;;;;;;5040322;28;20174;-88
2022/01/25 11:19:08;;;;;;;21.23;12.90;;;4.10;99.90;;;;;;5033992;28;20182;-89
2022/01/25 11:21:34;;;;;;;21.23;13.70;;;4.10;99.90;;;;;;5032859;28;20201;-89
2022/01/25 11:24:04;;;;;;;20.40;13.47;;;4.20;99.90;;;;;;5032628;28;20170;-83
2022/01/25 11:26:30;;;;;;;23.00;13.73;;;4.10;99.90;;;;;;5033222;28;20174;-89
2022/01/25 11:28:56;;;;;;;24.83;14.53;;;4.20;99.90;;;;;;5032285;28;20183;-89
2022/01/25 11:31:27;;;;;;;20.90;14.77;;;4.20;99.90;;;;;;5048334;28;20206;-89
2022/01/25 11:33:54;;;;;;;22.07;14.30;;;4.10;99.90;;;;;;5042840;28;20225;-89
2022/01/25 11:36:22;;;;;;;24.50;15.47;;;4.30;99.90;;;;;;5016128;28;20203;-89
2022/01/25 11:38:51;;;;;;;22.30;14.77;;;4.40;99.90;;;;;;5015745;28;20175;-89
2022/01/25 11:41:20;;;;;;;19.87;13.70;;;4.60;99.90;;;;;;5016216;28;20178;-89
2022/01/25 11:44:07;;;;;;;21.80;13.77;;;4.70;99.90;;;;;;5016144;28;20174;-89
2022/01/25 11:46:38;;;;;;;19.53;12.90;;;4.70;99.90;;;;;;5021190;28;20227;-89
2022/01/25 11:49:10;;;;;;;18.57;12.13;;;4.80;99.90;;;;;;5035335;28;20182;-89
2022/01/25 11:52:26;;;;;;;21.03;13.03;;;4.90;99.90;;;;;;5035609;28;20198;-89
2022/01/25 11:55:14;;;;;;;21.57;13.83;;;5.10;99.90;;;;;;5035997;28;20174;-89
2022/01/25 11:57:58;;;;;;;18.87;13.13;;;5.20;99.90;;;;;;5034855;28;20206;-89
2022/01/25 12:00:49;;;;;;;23.60;14.20;;;5.10;99.90;;;;;;5034532;28;20171;-89
2022/01/25 12:03:31;;;;;;;19.47;12.77;;;5.00;99.90;;;;;;5014915;28;20223;-89
2022/01/25 12:06:14;;;;;;;22.40;14.17;;;5.10;99.90;;;;;;5022566;28;20168;-89
2022/01/25 12:11:43;;;;;;;19.70;12.77;;;5.30;99.90;;;;;;5036644;28;20185;-89
2022/01/25 12:14:22;;;;;;;19.20;12.47;;;5.40;99.90;;;;;;5035148;28;20630;-89
2022/01/25 12:16:54;;;;;;;17.40;11.77;;;5.50;99.90;;;;;;5031246;28;20200;-89
2022/01/25 12:19:34;;;;;;;18.77;12.77;;;5.60;99.90;;;;;;5015096;28;20258;-89
2022/01/25 12:22:03;;;;;;;17.93;12.10;;;5.50;99.90;;;;;;5031510;28;20215;-89
2022/01/25 12:24:59;;;;;;;16.70;11.67;;;5.50;99.90;;;;;;5035080;28;20207;-89
2022/01/25 12:28:01;;;;;;;18.83;12.33;;;5.70;99.90;;;;;;5031679;28;20185;-89
2022/01/25 12:30:39;;;;;;;19.60;11.77;;;5.60;99.90;;;;;;5028234;28;20193;-89
2022/01/25 12:33:23;;;;;;;19.33;12.10;;;5.70;99.90;;;;;;5031802;28;20290;-89
2022/01/25 12:35:54;;;;;;;15.93;11.03;;;5.80;99.90;;;;;;5020607;28;20273;-89
2022/01/25 12:38:24;;;;;;;16.43;11.43;;;5.70;99.90;;;;;;5038382;28;20207;-89
2022/01/25 12:41:18;;;;;;;17.53;11.37;;;5.80;99.90;;;;;;5038829;28;20181;-89
2022/01/25 12:43:51;;;;;;;16.20;10.90;;;5.90;99.90;;;;;;5038758;28;20185;-89
2022/01/25 12:46:29;;;;;;;17.80;11.27;;;6.10;99.90;;;;;;5019732;28;20235;-89
2022/01/25 12:48:57;;;;;;;18.37;11.23;;;6.20;99.90;;;;;;5018297;28;20173;-89
2022/01/25 12:51:35;;;;;;;16.57;11.03;;;6.20;99.90;;;;;;5024125;28;20197;-89
2022/01/25 12:54:06;;;;;;;13.13;9.93;;;6.30;99.90;;;;;;5036716;28;20188;-89
2022/01/25 12:56:44;;;;;;;15.90;10.63;;;6.50;99.90;;;;;;5044546;28;20197;-89
2022/01/25 12:59:15;;;;;;;16.33;10.73;;;6.60;99.90;;;;;;5031169;28;20229;-89
2022/01/25 13:01:43;;;;;;;13.07;10.27;;;6.70;99.90;;;;;;5043935;28;20288;-89
2022/01/25 13:04:10;;;;;;;14.80;10.30;;;6.90;99.90;;;;;;5043049;28;20241;-89
2022/01/25 13:06:43;;;;;;;15.47;10.23;;;7.00;99.90;;;;;;5045554;28;20186;-89
2022/01/25 13:09:21;;;;;;;14.93;10.33;;;7.10;99.90;;;;;;5027313;28;20179;-90
2022/01/25 13:17:12;;;;;;;13.43;10.13;;;7.30;99.90;;;;;;5045322;28;20201;-89
2022/01/25 13:19:50;;;;;;;13.97;10.37;;;7.50;99.90;;;;;;5027262;28;20184;-90
2022/01/25 13:22:19;;;;;;;15.13;10.53;;;7.40;99.90;;;;;;5034365;28;20284;-90
2022/01/25 13:25:08;;;;;;;13.23;9.67;;;7.40;99.90;;;;;;5032078;28;20183;-89
2022/01/25 13:27:46;;;;;;;14.60;9.40;;;7.50;99.90;;;;;;5051371;28;20220;-89
2022/01/25 13:32:59;;;;;;;15.97;9.90;;;7.90;99.90;;;;;;5047892;28;20216;-90
2022/01/25 13:35:30;;;;;;;13.20;9.50;;;7.90;99.90;;;;;;5051567;28;20264;-90
2022/01/25 13:38:18;;;;;;;16.07;9.53;;;7.90;99.90;;;;;;5046007;28;20203;-89
2022/01/25 13:40:55;;;;;;;14.70;9.47;;;8.00;99.90;;;;;;5027359;28;20171;-89
2022/01/25 13:46:12;;;;;;;13.90;9.60;;;8.00;99.90;;;;;;5043177;28;20169;-90
2022/01/25 13:48:39;;;;;;;15.97;10.07;;;8.10;99.90;;;;;;5030402;28;20212;-89
2022/01/25 13:51:09;;;;;;;16.13;11.53;;;8.20;99.90;;;;;;5034153;28;20178;-90
2022/01/25 13:53:36;;;;;;;17.03;11.37;;;8.40;99.90;;;;;;5026004;28;20178;-89
2022/01/25 13:56:08;;;;;;;18.10;11.37;;;8.40;99.90;;;;;;5053583;28;20335;-90
2022/01/25 13:58:42;;;;;;;21.57;11.67;;;8.40;99.90;;;;;;5025390;28;20189;-90
2022/01/25 14:01:10;;;;;;;16.57;11.10;;;8.50;99.90;;;;;;5051905;28;20192;-90
2022/01/25 14:03:39;;;;;;;13.37;10.60;;;8.60;99.90;;;;;;5037070;28;20193;-90
2022/01/25 14:06:27;;;;;;;16.03;10.97;;;8.70;99.90;;;;;;5029167;28;20243;-89
2022/01/25 14:09:15;;;;;;;16.57;10.93;;;8.70;99.90;;;;;;5020040;28;20190;-89
2022/01/25 14:23:18;;;;;;;15.70;11.03;;;8.90;99.90;;;;;;5036804;28;20344;-89
2022/01/25 14:25:42;;;;;;;17.27;11.37;;;8.90;99.90;;;;;;5045881;28;20177;-90
2022/01/25 14:28:19;;;;;;;15.17;10.17;;;8.70;99.90;;;;;;5032496;28;20198;-89
2022/01/25 14:30:54;;;;;;;13.73;9.83;;;8.80;99.90;;;;;;5035165;28;20224;-90
2022/01/25 14:33:25;;;;;;;16.00;10.50;;;8.90;99.90;;;;;;5037471;28;20208;-90
2022/01/25 14:36:09;;;;;;;24.40;11.30;;;8.70;99.90;;;;;;5033609;28;20175;-90
2022/01/25 14:38:38;;;;;;;14.97;10.53;;;8.60;99.90;;;;;;5025941;28;20182;-89
2022/01/25 14:41:11;;;;;;;13.47;9.97;;;8.50;99.90;;;;;;5024169;28;20180;-90
2022/01/25 14:43:45;;;;;;;15.77;10.17;;;8.50;99.90;;;;;;5040142;28;20630;-90
2022/01/25 14:46:32;;;;;;;15.97;9.20;;;8.50;99.90;;;;;;5024362;28;20170;-89
2022/01/25 14:49:13;;;;;;;15.33;10.50;;;8.60;99.90;;;;;;5039668;28;20236;-83
2022/01/25 14:52:04;;;;;;;18.03;11.17;;;8.50;99.90;;;;;;5026050;28;20305;-90
2022/01/25 14:54:32;;;;;;;19.07;12.37;;;8.50;99.90;;;;;;5034664;28;20189;-89
2022/01/25 14:57:05;;;;;;;16.73;12.20;;;8.40;99.90;;;;;;5031451;28;20202;-89
2022/01/25 14:59:38;;;;;;;16.47;12.43;;;8.20;99.90;;;;;;5033949;28;20204;-89
2022/01/25 15:02:13;;;;;;;19.23;12.27;;;8.00;99.90;;;;;;5040662;28;20189;-89
2022/01/25 15:04:45;;;;;;;19.27;12.33;;;7.80;99.90;;;;;;5051642;28;20180;-89
2022/01/25 15:07:14;;;;;;;17.43;12.90;;;7.70;99.90;;;;;;5033962;28;20177;-89
2022/01/25 15:12:48;;;;;;;23.37;13.97;;;7.30;99.90;;;;;;5041751;28;20222;-89
2022/01/25 15:15:27;;;;;;;23.00;14.80;;;7.20;99.90;;;;;;5025308;28;20181;-89
2022/01/25 15:17:54;;;;;;;20.13;13.83;;;7.10;99.90;;;;;;5042617;28;20205;-89